King of Scandinavia — OVOL2 — position and weather

sailwx.info

Track history (hours):
 
Tides and Currents Weather Stations Pressure Air Temp Water Temp Dewpoint Dewpoint Depression Visibility Wind Speed Wind Dir Waves Ship Positions

King of Scandinavia

Ship's website: http://www.dfds.co.uk/DSW/EN/OnBoard/na/KING.htm

Last reported at 2017-Aug-18 10:28 UTC. Time now 2017-Aug-18 10:51 UTC.
Position N 54°59' W 001°27'.

Length 166 m; beam 27.6 m; draft 6.2 m.

Type: Ship. MMSI: 220449000.

Date/timePositionNaut miles runAvg speedWind from/ knotsBaromVisibWave heightAir tempDewpointWater temp
2017-Aug-18 10:28N 54°59' W 001°27'0 0.0
2017-Aug-18 09:49N 54°59' W 001°27'0 0.0
2017-Aug-18 09:19N 54°59' W 001°27'0 0.0
2017-Aug-18 08:58N 54°59' W 001°27'0 0.0
2017-Aug-18 08:22N 54°59' W 001°27'0 1.1
2017-Aug-18 08:00N 54°60' W 001°27'510.8
2017-Aug-18 07:30N 54°60' W 001°17'713.8
2017-Aug-18 07:00N 54°56' W 001°07'714.3
2017-Aug-18 06:30N 54°52' W 000°57'814.8
2017-Aug-18 06:00N 54°48' W 000°46'1815.2
2017-Aug-18 04:49N 54°38' W 000°20'515.1
2017-Aug-18 04:27N 54°35' W 000°12'715.6
2017-Aug-18 04:00N 54°31' W 000°02'917.5
2017-Aug-18 03:30N 54°27' E 000°11'917.1
2017-Aug-18 03:00N 54°22' E 000°23'17116.7
2017-Aug-17 16:43N 52°38' E 004°13'313.8
2017-Aug-17 16:30N 52°36' E 004°16'713.9
2017-Aug-17 16:00N 52°32' E 004°25'713.0
2017-Aug-17 15:30N 52°28' E 004°34'1 1.8
2017-Aug-17 15:00N 52°28' E 004°35'0 0.0
2017-Aug-17 14:29N 52°28' E 004°35'0 0.0
2017-Aug-17 13:59N 52°28' E 004°35'0 0.0
2017-Aug-17 13:29N 52°28' E 004°35'0 0.0
2017-Aug-17 12:59N 52°28' E 004°35'0 0.0
2017-Aug-17 12:29N 52°28' E 004°35'0 0.0
2017-Aug-17 11:59N 52°28' E 004°35'0 0.0
2017-Aug-17 11:29N 52°28' E 004°35'0 0.0
2017-Aug-17 10:56N 52°28' E 004°35'0 0.0
2017-Aug-17 10:29N 52°28' E 004°35'0 0.0
2017-Aug-17 09:59N 52°28' E 004°35'0 0.0
2017-Aug-17 09:29N 52°28' E 004°35'0 0.0
2017-Aug-17 08:59N 52°28' E 004°35'0 0.0
2017-Aug-17 08:29N 52°28' E 004°35'0 0.0
2017-Aug-17 07:59N 52°28' E 004°35'0 0.4
2017-Aug-17 07:31N 52°28' E 004°35'510.5
2017-Aug-17 07:01N 52°30' E 004°27'714.5
2017-Aug-17 06:30N 52°35' E 004°18'714.8
2017-Aug-17 06:00N 52°39' E 004°09'1214.2
2017-Aug-17 05:10N 52°48' E 003°55'214.6
2017-Aug-17 05:00N 52°49' E 003°52'714.6
2017-Aug-17 04:30N 52°54' E 003°42'714.5
2017-Aug-17 04:00N 52°58' E 003°32'2014.7
2017-Aug-17 02:39N 53°12' E 003°08'314.4
2017-Aug-17 02:29N 53°13' E 003°05'2819.6
2017-Aug-17 01:04N 53°31' E 002°30'419.9
2017-Aug-17 00:52N 53°34' E 002°25'6319.2
2017-Aug-16 21:36N 54°09' E 000°57'818.9
2017-Aug-16 21:11N 54°13' E 000°46'319.0
2017-Aug-16 21:01N 54°15' E 000°41'1019.1
2017-Aug-16 20:31N 54°20' E 000°27'918.9
2017-Aug-16 20:01N 54°26' E 000°13'918.8
2017-Aug-16 19:31N 54°31' W 000°00'918.7
2017-Aug-16 19:01N 54°36' W 000°14'1718.6
2017-Aug-16 18:06N 54°44' W 000°39'218.6
2017-Aug-16 18:00N 54°45' W 000°41'918.7
2017-Aug-16 17:30N 54°51' W 000°54'918.8
2017-Aug-16 17:00N 54°56' W 001°08'918.6
2017-Aug-16 16:30N 55°01' W 001°22'3 6.2
2017-Aug-16 16:00N 54°59' W 001°27'0 0.0
2017-Aug-16 15:30N 54°59' W 001°27'0 0.0
2017-Aug-16 14:56N 54°59' W 001°27'0 0.0
2017-Aug-16 14:26N 54°59' W 001°27'0 0.0
2017-Aug-16 13:56N 54°59' W 001°27'0 0.0
2017-Aug-16 13:29N 54°59' W 001°27'0 0.0
2017-Aug-16 12:56N 54°59' W 001°27'0 0.0
2017-Aug-16 12:29N 54°59' W 001°27'0 0.0
2017-Aug-16 11:59N 54°59' W 001°27'0 0.0
2017-Aug-16 11:29N 54°59' W 001°27'0 0.0
2017-Aug-16 10:59N 54°59' W 001°27'0 0.0
2017-Aug-16 10:29N 54°59' W 001°27'0 0.0
2017-Aug-16 09:59N 54°59' W 001°27'0 0.0
2017-Aug-16 09:29N 54°59' W 001°27'0 0.0
2017-Aug-16 08:59N 54°59' W 001°27'0 0.0
2017-Aug-16 08:29N 54°59' W 001°27'0 0.4
2017-Aug-16 08:00N 54°60' W 001°27'4 8.8
2017-Aug-16 07:30N 54°60' W 001°19'714.7
2017-Aug-16 07:00N 54°56' W 001°08'815.8
2017-Aug-16 06:30N 54°52' W 000°57'917.7
2017-Aug-16 06:00N 54°47' W 000°44'1618.0
2017-Aug-16 05:06N 54°38' W 000°20'218.1
2017-Aug-16 05:00N 54°37' W 000°17'918.2
2017-Aug-16 04:30N 54°32' W 000°04'918.3
2017-Aug-16 04:01N 54°28' E 000°09'918.1
2017-Aug-16 03:31N 54°23' E 000°22'17116.0
2017-Aug-15 16:50N 52°39' E 004°11'514.8
2017-Aug-15 16:30N 52°36' E 004°17'714.4
2017-Aug-15 16:00N 52°31' E 004°26'612.2
2017-Aug-15 15:30N 52°28' E 004°34'1 1.2
2017-Aug-15 15:00N 52°28' E 004°35'0 0.0
2017-Aug-15 14:28N 52°28' E 004°35'0 0.0
2017-Aug-15 13:58N 52°28' E 004°35'0 0.0
2017-Aug-15 13:28N 52°28' E 004°35'0 0.0
2017-Aug-15 12:58N 52°28' E 004°35'0 0.0
2017-Aug-15 12:28N 52°28' E 004°35'0 0.0
2017-Aug-15 11:58N 52°28' E 004°35'0 0.0
2017-Aug-15 11:28N 52°28' E 004°35'0 0.0
2017-Aug-15 10:58N 52°28' E 004°35'0 0.0
2017-Aug-15 10:28N 52°28' E 004°35'0 0.0
2017-Aug-15 09:58N 52°28' E 004°35'0 0.0
2017-Aug-15 09:28N 52°28' E 004°35'0 0.0
2017-Aug-15 08:55N 52°28' E 004°35'0 0.0
2017-Aug-15 08:28N 52°28' E 004°35'0 0.0
2017-Aug-15 07:58N 52°28' E 004°35'0 0.1
2017-Aug-15 07:31N 52°28' E 004°35'5 9.2
2017-Aug-15 07:01N 52°29' E 004°28'816.2
2017-Aug-15 06:31N 52°35' E 004°18'816.8
2017-Aug-15 06:00N 52°41' E 004°09'817.0
2017-Aug-15 05:30N 52°46' E 003°58'817.0
2017-Aug-15 05:01N 52°52' E 003°47'917.2
2017-Aug-15 04:30N 52°57' E 003°36'917.0
2017-Aug-15 04:00N 53°03' E 003°25'917.4
2017-Aug-15 03:28N 53°09' E 003°13'817.5
2017-Aug-15 03:00N 53°14' E 003°03'917.7
2017-Aug-15 02:30N 53°20' E 002°52'917.9
2017-Aug-15 02:00N 53°26' E 002°41'1118.2
2017-Aug-15 01:25N 53°33' E 002°27'818.4
2017-Aug-15 01:00N 53°38' E 002°17'918.2
2017-Aug-15 00:30N 53°44' E 002°05'918.1
2017-Aug-15 00:00N 53°49' E 001°53'918.2
2017-Aug-14 23:30N 53°53' E 001°40'918.1
2017-Aug-14 23:00N 53°58' E 001°27'2818.1
2017-Aug-14 21:27N 54°13' E 000°46'818.0
2017-Aug-14 21:01N 54°18' E 000°35'917.9
2017-Aug-14 20:31N 54°23' E 000°22'918.0
2017-Aug-14 20:01N 54°27' E 000°08'918.0
2017-Aug-14 19:30N 54°32' W 000°05'917.9
2017-Aug-14 19:00N 54°37' W 000°18'1117.7
2017-Aug-14 18:22N 54°43' W 000°34'617.5
2017-Aug-14 18:01N 54°46' W 000°43'917.4
2017-Aug-14 17:30N 54°51' W 000°56'917.3
2017-Aug-14 17:01N 54°56' W 001°09'917.4
2017-Aug-14 16:30N 55°00' W 001°22'3 6.6
2017-Aug-14 16:00N 54°59' W 001°27'0 0.1
2017-Aug-14 15:30N 54°59' W 001°27'0 0.0
2017-Aug-14 14:58N 54°59' W 001°27'0 0.0
2017-Aug-14 14:28N 54°59' W 001°27'0 0.0
2017-Aug-14 13:58N 54°59' W 001°27'0 0.0
2017-Aug-14 13:30N 54°59' W 001°27'0 0.0
2017-Aug-14 13:00N 54°59' W 001°27'0 0.0
2017-Aug-14 12:30N 54°59' W 001°27'0 0.0
2017-Aug-14 11:59N 54°59' W 001°27'0 0.0
2017-Aug-14 11:19N 54°59' W 001°27'0 0.0
2017-Aug-14 10:49N 54°59' W 001°27'0 0.0
2017-Aug-14 10:19N 54°59' W 001°27'0 0.0
2017-Aug-14 09:52N 54°59' W 001°27'0 0.0
2017-Aug-14 09:22N 54°59' W 001°27'0 0.0
2017-Aug-14 08:52N 54°59' W 001°27'0 0.0
2017-Aug-14 08:22N 54°59' W 001°27'0 0.3
2017-Aug-14 08:00N 54°60' W 001°27'4 8.3
2017-Aug-14 07:30N 55°00' W 001°20'714.1
2017-Aug-14 07:00N 54°56' W 001°09'714.3
2017-Aug-14 06:30N 54°52' W 000°59'816.2
2017-Aug-14 06:01N 54°48' W 000°47'817.0
2017-Aug-14 05:31N 54°44' W 000°35'1217.3
2017-Aug-14 04:49N 54°37' W 000°17'617.6
2017-Aug-14 04:31N 54°34' W 000°09'917.9
2017-Aug-14 04:00N 54°29' E 000°04'918.2
2017-Aug-14 03:31N 54°24' E 000°17'918.3
2017-Aug-14 03:01N 54°20' E 000°30'918.5
2017-Aug-14 02:31N 54°15' E 000°43'918.4
2017-Aug-14 02:01N 54°10' E 000°57'918.2
2017-Aug-14 01:31N 54°05' E 001°10'917.7
2017-Aug-14 01:01N 53°60' E 001°22'917.3
2017-Aug-14 00:31N 53°55' E 001°35'917.0
2017-Aug-14 00:01N 53°51' E 001°47'11515.6
2017-Aug-13 16:39N 52°37' E 004°15'314.9
2017-Aug-13 16:28N 52°35' E 004°18'714.2
2017-Aug-13 16:00N 52°31' E 004°26'612.2
2017-Aug-13 15:30N 52°28' E 004°34'1 1.0
2017-Aug-13 15:00N 52°28' E 004°35'0 0.0
2017-Aug-13 14:30N 52°28' E 004°35'0 0.0
2017-Aug-13 14:00N 52°28' E 004°35'0 0.0
2017-Aug-13 13:30N 52°28' E 004°35'0 0.0
2017-Aug-13 13:00N 52°28' E 004°35'0 0.0
2017-Aug-13 12:30N 52°28' E 004°35'0 0.0
2017-Aug-13 12:00N 52°28' E 004°35'0 0.0
2017-Aug-13 11:30N 52°28' E 004°35'0 0.0
2017-Aug-13 11:00N 52°28' E 004°35'0 0.0
2017-Aug-13 10:30N 52°28' E 004°35'0 0.0
2017-Aug-13 10:00N 52°28' E 004°35'0 0.0
2017-Aug-13 09:30N 52°28' E 004°35'0 0.0
2017-Aug-13 09:00N 52°28' E 004°35'0 0.0
2017-Aug-13 08:30N 52°28' E 004°35'0 0.0
2017-Aug-13 08:00N 52°28' E 004°35'0 0.1
2017-Aug-13 07:31N 52°28' E 004°35'4 7.1
2017-Aug-13 07:00N 52°29' E 004°29'713.8
2017-Aug-13 06:30N 52°33' E 004°21'714.0
2017-Aug-13 06:01N 52°38' E 004°13'16317.2
2017-Aug-12 20:31N 54°17' E 000°35'218.7
2017-Aug-12 20:25N 54°18' E 000°33'818.8
2017-Aug-12 20:01N 54°22' E 000°22'918.9
2017-Aug-12 19:31N 54°27' E 000°08'919.0
2017-Aug-12 19:01N 54°32' W 000°06'918.8
2017-Aug-12 18:31N 54°38' W 000°20'1718.7
2017-Aug-12 17:36N 54°47' W 000°45'218.6
2017-Aug-12 17:30N 54°48' W 000°47'918.4
2017-Aug-12 17:00N 54°52' W 001°01'918.2
2017-Aug-12 16:31N 54°57' W 001°14'814.9
2017-Aug-12 16:00N 55°00' W 001°26'1 2.4
2017-Aug-12 15:30N 54°59' W 001°27'0 0.0
2017-Aug-12 15:00N 54°59' W 001°27'0 0.0
2017-Aug-12 14:30N 54°59' W 001°27'0 0.0
2017-Aug-12 14:00N 54°59' W 001°27'0 0.0
2017-Aug-12 13:30N 54°59' W 001°27'0 0.0
2017-Aug-12 13:00N 54°59' W 001°27'0 0.0
2017-Aug-12 12:30N 54°59' W 001°27'0 0.0
2017-Aug-12 12:00N 54°59' W 001°27'0 0.0
2017-Aug-12 11:30N 54°59' W 001°27'0 0.0
2017-Aug-12 11:00N 54°59' W 001°27'0 0.0
2017-Aug-12 10:30N 54°59' W 001°27'0 0.0
2017-Aug-12 10:00N 54°59' W 001°27'0 0.0
2017-Aug-12 09:30N 54°59' W 001°27'0 0.0
2017-Aug-12 09:00N 54°59' W 001°27'0 0.0
2017-Aug-12 08:30N 54°59' W 001°27'0 0.8
2017-Aug-12 08:00N 54°60' W 001°27'510.3
2017-Aug-12 07:30N 54°59' W 001°18'816.7
2017-Aug-12 07:00N 54°55' W 001°06'816.5
2017-Aug-12 06:30N 54°50' W 000°53'816.2
2017-Aug-12 06:00N 54°46' W 000°42'1616.2
2017-Aug-12 05:00N 54°37' W 000°17'816.5
2017-Aug-12 04:30N 54°33' W 000°06'816.7
2017-Aug-12 04:00N 54°28' E 000°06'917.3
2017-Aug-12 03:30N 54°24' E 000°19'917.5
2017-Aug-12 03:00N 54°19' E 000°31'917.8
2017-Aug-12 02:30N 54°14' E 000°44'15916.1
2017-Aug-11 16:38N 52°37' E 004°15'215.2
2017-Aug-11 16:29N 52°35' E 004°18'714.9
2017-Aug-11 16:00N 52°31' E 004°27'611.5
2017-Aug-11 15:31N 52°28' E 004°35'0 0.7
2017-Aug-11 15:01N 52°28' E 004°35'0 0.0
2017-Aug-11 13:58N 52°28' E 004°35'0 0.0
2017-Aug-11 13:28N 52°28' E 004°35'0 0.0
2017-Aug-11 12:58N 52°28' E 004°35'0 0.0
2017-Aug-11 12:28N 52°28' E 004°35'0 0.0
2017-Aug-11 11:58N 52°28' E 004°35'0 0.0
2017-Aug-11 11:28N 52°28' E 004°35'0 0.0
2017-Aug-11 10:58N 52°28' E 004°35'0 0.0
2017-Aug-11 10:28N 52°28' E 004°35'0 0.0
2017-Aug-11 09:58N 52°28' E 004°35'0 0.0
2017-Aug-11 09:28N 52°28' E 004°35'0 0.0
2017-Aug-11 08:58N 52°28' E 004°35'0 0.0
2017-Aug-11 08:28N 52°28' E 004°35'0 0.0
2017-Aug-11 07:55N 52°28' E 004°35'0 0.4
2017-Aug-11 07:30N 52°28' E 004°35'5 9.2
2017-Aug-11 07:00N 52°29' E 004°28'714.4
2017-Aug-11 06:30N 52°34' E 004°19'816.4
2017-Aug-11 06:00N 52°40' E 004°09'916.4
2017-Aug-11 05:28N 52°46' E 003°59'13517.2
2017-Aug-10 21:36N 54°09' E 000°59'417.8
2017-Aug-10 21:23N 54°11' E 000°53'717.8
2017-Aug-10 21:01N 54°14' E 000°44'917.9
2017-Aug-10 20:31N 54°19' E 000°31'918.0
2017-Aug-10 20:01N 54°24' E 000°18'918.2
2017-Aug-10 19:31N 54°29' E 000°05'918.3
2017-Aug-10 19:00N 54°33' W 000°09'918.3
2017-Aug-10 18:30N 54°38' W 000°22'1318.2
2017-Aug-10 17:47N 54°45' W 000°42'518.0
2017-Aug-10 17:30N 54°48' W 000°49'917.8
2017-Aug-10 17:01N 54°53' W 001°02'918.2
2017-Aug-10 16:30N 54°58' W 001°15'713.5
2017-Aug-10 16:00N 55°00' W 001°26'1 2.2
2017-Aug-10 15:30N 54°59' W 001°27'0 0.0
2017-Aug-10 14:59N 54°59' W 001°27'0 0.0
2017-Aug-10 14:29N 54°59' W 001°27'0 0.0
2017-Aug-10 13:56N 54°59' W 001°27'0 0.0
2017-Aug-10 13:20N 54°59' W 001°27'0 0.0
2017-Aug-10 12:53N 54°59' W 001°27'0 0.0
2017-Aug-10 12:20N 54°59' W 001°27'0 0.0
2017-Aug-10 11:59N 54°59' W 001°27'0 0.0
2017-Aug-10 11:29N 54°59' W 001°27'0 0.0
2017-Aug-10 10:59N 54°59' W 001°27'0 0.0
2017-Aug-10 10:29N 54°59' W 001°27'0 0.0
2017-Aug-10 09:59N 54°59' W 001°27'0 0.0
2017-Aug-10 09:26N 54°59' W 001°27'0 0.0
2017-Aug-10 08:59N 54°59' W 001°27'0 0.0
2017-Aug-10 08:29N 54°59' W 001°27'0 0.7
2017-Aug-10 08:00N 54°60' W 001°27'4 8.9
2017-Aug-10 07:30N 54°60' W 001°19'816.2
2017-Aug-10 07:01N 54°56' W 001°07'917.4
2017-Aug-10 06:31N 54°51' W 000°54'918.2
2017-Aug-10 06:01N 54°46' W 000°41'1317.7
2017-Aug-10 05:17N 54°39' W 000°22'517.5
2017-Aug-10 05:00N 54°36' W 000°15'917.5
2017-Aug-10 04:31N 54°32' W 000°03'917.6
2017-Aug-10 04:01N 54°27' E 000°10'816.8
2017-Aug-10 03:31N 54°22' E 000°22'17115.9
2017-Aug-09 16:45N 52°39' E 004°11'414.6
2017-Aug-09 16:30N 52°36' E 004°16'714.7
2017-Aug-09 15:59N 52°32' E 004°25'613.1
2017-Aug-09 15:30N 52°28' E 004°34'1 1.5
2017-Aug-09 15:00N 52°28' E 004°35'0 0.0
2017-Aug-09 14:29N 52°28' E 004°35'0 0.0
2017-Aug-09 13:56N 52°28' E 004°35'0 0.0
2017-Aug-09 13:29N 52°28' E 004°35'0 0.0
2017-Aug-09 12:59N 52°28' E 004°35'0 0.0
2017-Aug-09 12:26N 52°28' E 004°35'0 0.0
2017-Aug-09 11:59N 52°28' E 004°35'0 0.0
2017-Aug-09 11:29N 52°28' E 004°35'0 0.0
2017-Aug-09 10:59N 52°28' E 004°35'0 0.0
2017-Aug-09 10:29N 52°28' E 004°35'0 0.0
2017-Aug-09 09:56N 52°28' E 004°35'0 0.0
2017-Aug-09 09:29N 52°28' E 004°35'0 0.0
2017-Aug-09 08:59N 52°28' E 004°35'0 0.0
2017-Aug-09 08:29N 52°28' E 004°35'0 0.0
2017-Aug-09 07:59N 52°28' E 004°35'0 0.1
2017-Aug-09 07:31N 52°28' E 004°35'4 8.5
2017-Aug-09 07:00N 52°29' E 004°28'714.4
2017-Aug-09 06:30N 52°34' E 004°20'714.5
2017-Aug-09 06:00N 52°39' E 004°11'16717.2
2017-Aug-08 20:19N 54°20' E 000°28'618.9
2017-Aug-08 20:00N 54°23' E 000°20'1019.2
2017-Aug-08 19:30N 54°28' E 000°05'1019.5
2017-Aug-08 19:00N 54°33' W 000°09'1019.9
2017-Aug-08 18:30N 54°39' W 000°23'1719.9
2017-Aug-08 17:40N 54°48' W 000°48'319.8
2017-Aug-08 17:30N 54°49' W 000°53'1019.4
2017-Aug-08 17:00N 54°54' W 001°07'1019.4
2017-Aug-08 16:30N 54°60' W 001°21'3 6.9
2017-Aug-08 16:00N 54°59' W 001°27'0 0.2
2017-Aug-08 15:30N 54°59' W 001°27'0 0.0
2017-Aug-08 14:49N 54°59' W 001°27'0 0.0
2017-Aug-08 14:19N 54°59' W 001°27'0 0.0
2017-Aug-08 13:52N 54°59' W 001°27'0 0.0
2017-Aug-08 13:22N 54°59' W 001°27'0 0.0
2017-Aug-08 12:52N 54°59' W 001°27'0 0.0
2017-Aug-08 12:25N 54°59' W 001°27'0 0.0
2017-Aug-08 11:58N 54°59' W 001°27'0 0.0
2017-Aug-08 11:25N 54°59' W 001°27'0 0.0
2017-Aug-08 10:58N 54°59' W 001°27'  
Track history (hours):
 
Tides and Currents Weather Stations Pressure Air Temp Water Temp Dewpoint Dewpoint Depression Visibility Wind Speed Wind Dir Waves Ship Positions

King of Scandinavia

Ship's website: http://www.dfds.co.uk/DSW/EN/OnBoard/na/KING.htm

Last reported at 2017-Aug-18 10:28 UTC. Time now 2017-Aug-18 10:51 UTC.
Position N 54°59' W 001°27'.

Length 166 m; beam 27.6 m; draft 6.2 m.

Type: Ship. MMSI: 220449000.

Date/timePositionNaut miles runAvg speedWind from/ knotsBaromVisibWave heightAir tempDewpointWater temp
2017-Aug-18 10:28N 54°59' W 001°27'0 0.0
2017-Aug-18 09:49N 54°59' W 001°27'0 0.0
2017-Aug-18 09:19N 54°59' W 001°27'0 0.0
2017-Aug-18 08:58N 54°59' W 001°27'0 0.0
2017-Aug-18 08:22N 54°59' W 001°27'0 1.1
2017-Aug-18 08:00N 54°60' W 001°27'510.8
2017-Aug-18 07:30N 54°60' W 001°17'713.8
2017-Aug-18 07:00N 54°56' W 001°07'714.3
2017-Aug-18 06:30N 54°52' W 000°57'814.8
2017-Aug-18 06:00N 54°48' W 000°46'1815.2
2017-Aug-18 04:49N 54°38' W 000°20'515.1
2017-Aug-18 04:27N 54°35' W 000°12'715.6
2017-Aug-18 04:00N 54°31' W 000°02'917.5
2017-Aug-18 03:30N 54°27' E 000°11'917.1
2017-Aug-18 03:00N 54°22' E 000°23'17116.7
2017-Aug-17 16:43N 52°38' E 004°13'313.8
2017-Aug-17 16:30N 52°36' E 004°16'713.9
2017-Aug-17 16:00N 52°32' E 004°25'713.0
2017-Aug-17 15:30N 52°28' E 004°34'1 1.8
2017-Aug-17 15:00N 52°28' E 004°35'0 0.0
2017-Aug-17 14:29N 52°28' E 004°35'0 0.0
2017-Aug-17 13:59N 52°28' E 004°35'0 0.0
2017-Aug-17 13:29N 52°28' E 004°35'0 0.0
2017-Aug-17 12:59N 52°28' E 004°35'0 0.0
2017-Aug-17 12:29N 52°28' E 004°35'0 0.0
2017-Aug-17 11:59N 52°28' E 004°35'0 0.0
2017-Aug-17 11:29N 52°28' E 004°35'0 0.0
2017-Aug-17 10:56N 52°28' E 004°35'0 0.0
2017-Aug-17 10:29N 52°28' E 004°35'0 0.0
2017-Aug-17 09:59N 52°28' E 004°35'0 0.0
2017-Aug-17 09:29N 52°28' E 004°35'0 0.0
2017-Aug-17 08:59N 52°28' E 004°35'0 0.0
2017-Aug-17 08:29N 52°28' E 004°35'0 0.0
2017-Aug-17 07:59N 52°28' E 004°35'0 0.4
2017-Aug-17 07:31N 52°28' E 004°35'510.5
2017-Aug-17 07:01N 52°30' E 004°27'714.5
2017-Aug-17 06:30N 52°35' E 004°18'714.8
2017-Aug-17 06:00N 52°39' E 004°09'1214.2
2017-Aug-17 05:10N 52°48' E 003°55'214.6
2017-Aug-17 05:00N 52°49' E 003°52'714.6
2017-Aug-17 04:30N 52°54' E 003°42'714.5
2017-Aug-17 04:00N 52°58' E 003°32'2014.7
2017-Aug-17 02:39N 53°12' E 003°08'314.4
2017-Aug-17 02:29N 53°13' E 003°05'2819.6
2017-Aug-17 01:04N 53°31' E 002°30'419.9
2017-Aug-17 00:52N 53°34' E 002°25'6319.2
2017-Aug-16 21:36N 54°09' E 000°57'818.9
2017-Aug-16 21:11N 54°13' E 000°46'319.0
2017-Aug-16 21:01N 54°15' E 000°41'1019.1
2017-Aug-16 20:31N 54°20' E 000°27'918.9
2017-Aug-16 20:01N 54°26' E 000°13'918.8
2017-Aug-16 19:31N 54°31' W 000°00'918.7
2017-Aug-16 19:01N 54°36' W 000°14'1718.6
2017-Aug-16 18:06N 54°44' W 000°39'218.6
2017-Aug-16 18:00N 54°45' W 000°41'918.7
2017-Aug-16 17:30N 54°51' W 000°54'918.8
2017-Aug-16 17:00N 54°56' W 001°08'918.6
2017-Aug-16 16:30N 55°01' W 001°22'3 6.2
2017-Aug-16 16:00N 54°59' W 001°27'0 0.0
2017-Aug-16 15:30N 54°59' W 001°27'0 0.0
2017-Aug-16 14:56N 54°59' W 001°27'0 0.0
2017-Aug-16 14:26N 54°59' W 001°27'0 0.0
2017-Aug-16 13:56N 54°59' W 001°27'0 0.0
2017-Aug-16 13:29N 54°59' W 001°27'0 0.0
2017-Aug-16 12:56N 54°59' W 001°27'0 0.0
2017-Aug-16 12:29N 54°59' W 001°27'0 0.0
2017-Aug-16 11:59N 54°59' W 001°27'0 0.0
2017-Aug-16 11:29N 54°59' W 001°27'0 0.0
2017-Aug-16 10:59N 54°59' W 001°27'0 0.0
2017-Aug-16 10:29N 54°59' W 001°27'0 0.0
2017-Aug-16 09:59N 54°59' W 001°27'0 0.0
2017-Aug-16 09:29N 54°59' W 001°27'0 0.0
2017-Aug-16 08:59N 54°59' W 001°27'0 0.0
2017-Aug-16 08:29N 54°59' W 001°27'0 0.4
2017-Aug-16 08:00N 54°60' W 001°27'4 8.8
2017-Aug-16 07:30N 54°60' W 001°19'714.7
2017-Aug-16 07:00N 54°56' W 001°08'815.8
2017-Aug-16 06:30N 54°52' W 000°57'917.7
2017-Aug-16 06:00N 54°47' W 000°44'1618.0
2017-Aug-16 05:06N 54°38' W 000°20'218.1
2017-Aug-16 05:00N 54°37' W 000°17'918.2
2017-Aug-16 04:30N 54°32' W 000°04'918.3
2017-Aug-16 04:01N 54°28' E 000°09'918.1
2017-Aug-16 03:31N 54°23' E 000°22'17116.0
2017-Aug-15 16:50N 52°39' E 004°11'514.8
2017-Aug-15 16:30N 52°36' E 004°17'714.4
2017-Aug-15 16:00N 52°31' E 004°26'612.2
2017-Aug-15 15:30N 52°28' E 004°34'1 1.2
2017-Aug-15 15:00N 52°28' E 004°35'0 0.0
2017-Aug-15 14:28N 52°28' E 004°35'0 0.0
2017-Aug-15 13:58N 52°28' E 004°35'0 0.0
2017-Aug-15 13:28N 52°28' E 004°35'0 0.0
2017-Aug-15 12:58N 52°28' E 004°35'0 0.0
2017-Aug-15 12:28N 52°28' E 004°35'0 0.0
2017-Aug-15 11:58N 52°28' E 004°35'0 0.0
2017-Aug-15 11:28N 52°28' E 004°35'0 0.0
2017-Aug-15 10:58N 52°28' E 004°35'0 0.0
2017-Aug-15 10:28N 52°28' E 004°35'0 0.0
2017-Aug-15 09:58N 52°28' E 004°35'0 0.0
2017-Aug-15 09:28N 52°28' E 004°35'0 0.0
2017-Aug-15 08:55N 52°28' E 004°35'0 0.0
2017-Aug-15 08:28N 52°28' E 004°35'0 0.0
2017-Aug-15 07:58N 52°28' E 004°35'0 0.1
2017-Aug-15 07:31N 52°28' E 004°35'5 9.2
2017-Aug-15 07:01N 52°29' E 004°28'816.2
2017-Aug-15 06:31N 52°35' E 004°18'816.8
2017-Aug-15 06:00N 52°41' E 004°09'817.0
2017-Aug-15 05:30N 52°46' E 003°58'817.0
2017-Aug-15 05:01N 52°52' E 003°47'917.2
2017-Aug-15 04:30N 52°57' E 003°36'917.0
2017-Aug-15 04:00N 53°03' E 003°25'917.4
2017-Aug-15 03:28N 53°09' E 003°13'817.5
2017-Aug-15 03:00N 53°14' E 003°03'917.7
2017-Aug-15 02:30N 53°20' E 002°52'917.9
2017-Aug-15 02:00N 53°26' E 002°41'1118.2
2017-Aug-15 01:25N 53°33' E 002°27'818.4
2017-Aug-15 01:00N 53°38' E 002°17'918.2
2017-Aug-15 00:30N 53°44' E 002°05'918.1
2017-Aug-15 00:00N 53°49' E 001°53'918.2
2017-Aug-14 23:30N 53°53' E 001°40'918.1
2017-Aug-14 23:00N 53°58' E 001°27'2818.1
2017-Aug-14 21:27N 54°13' E 000°46'818.0
2017-Aug-14 21:01N 54°18' E 000°35'917.9
2017-Aug-14 20:31N 54°23' E 000°22'918.0
2017-Aug-14 20:01N 54°27' E 000°08'918.0
2017-Aug-14 19:30N 54°32' W 000°05'917.9
2017-Aug-14 19:00N 54°37' W 000°18'1117.7
2017-Aug-14 18:22N 54°43' W 000°34'617.5
2017-Aug-14 18:01N 54°46' W 000°43'917.4
2017-Aug-14 17:30N 54°51' W 000°56'917.3
2017-Aug-14 17:01N 54°56' W 001°09'917.4
2017-Aug-14 16:30N 55°00' W 001°22'3 6.6
2017-Aug-14 16:00N 54°59' W 001°27'0 0.1
2017-Aug-14 15:30N 54°59' W 001°27'0 0.0
2017-Aug-14 14:58N 54°59' W 001°27'0 0.0
2017-Aug-14 14:28N 54°59' W 001°27'0 0.0
2017-Aug-14 13:58N 54°59' W 001°27'0 0.0
2017-Aug-14 13:30N 54°59' W 001°27'0 0.0
2017-Aug-14 13:00N 54°59' W 001°27'0 0.0
2017-Aug-14 12:30N 54°59' W 001°27'0 0.0
2017-Aug-14 11:59N 54°59' W 001°27'0 0.0
2017-Aug-14 11:19N 54°59' W 001°27'0 0.0
2017-Aug-14 10:49N 54°59' W 001°27'0 0.0
2017-Aug-14 10:19N 54°59' W 001°27'0 0.0
2017-Aug-14 09:52N 54°59' W 001°27'0 0.0
2017-Aug-14 09:22N 54°59' W 001°27'0 0.0
2017-Aug-14 08:52N 54°59' W 001°27'0 0.0
2017-Aug-14 08:22N 54°59' W 001°27'0 0.3
2017-Aug-14 08:00N 54°60' W 001°27'4 8.3
2017-Aug-14 07:30N 55°00' W 001°20'714.1
2017-Aug-14 07:00N 54°56' W 001°09'714.3
2017-Aug-14 06:30N 54°52' W 000°59'816.2
2017-Aug-14 06:01N 54°48' W 000°47'817.0
2017-Aug-14 05:31N 54°44' W 000°35'1217.3
2017-Aug-14 04:49N 54°37' W 000°17'617.6
2017-Aug-14 04:31N 54°34' W 000°09'917.9
2017-Aug-14 04:00N 54°29' E 000°04'918.2
2017-Aug-14 03:31N 54°24' E 000°17'918.3
2017-Aug-14 03:01N 54°20' E 000°30'918.5
2017-Aug-14 02:31N 54°15' E 000°43'918.4
2017-Aug-14 02:01N 54°10' E 000°57'918.2
2017-Aug-14 01:31N 54°05' E 001°10'917.7
2017-Aug-14 01:01N 53°60' E 001°22'917.3
2017-Aug-14 00:31N 53°55' E 001°35'917.0
2017-Aug-14 00:01N 53°51' E 001°47'11515.6
2017-Aug-13 16:39N 52°37' E 004°15'314.9
2017-Aug-13 16:28N 52°35' E 004°18'714.2
2017-Aug-13 16:00N 52°31' E 004°26'612.2
2017-Aug-13 15:30N 52°28' E 004°34'1 1.0
2017-Aug-13 15:00N 52°28' E 004°35'0 0.0
2017-Aug-13 14:30N 52°28' E 004°35'0 0.0
2017-Aug-13 14:00N 52°28' E 004°35'0 0.0
2017-Aug-13 13:30N 52°28' E 004°35'0 0.0
2017-Aug-13 13:00N 52°28' E 004°35'0 0.0
2017-Aug-13 12:30N 52°28' E 004°35'0 0.0
2017-Aug-13 12:00N 52°28' E 004°35'0 0.0
2017-Aug-13 11:30N 52°28' E 004°35'0 0.0
2017-Aug-13 11:00N 52°28' E 004°35'0 0.0
2017-Aug-13 10:30N 52°28' E 004°35'0 0.0
2017-Aug-13 10:00N 52°28' E 004°35'0 0.0
2017-Aug-13 09:30N 52°28' E 004°35'0 0.0
2017-Aug-13 09:00N 52°28' E 004°35'0 0.0
2017-Aug-13 08:30N 52°28' E 004°35'0 0.0
2017-Aug-13 08:00N 52°28' E 004°35'0 0.1
2017-Aug-13 07:31N 52°28' E 004°35'4 7.1
2017-Aug-13 07:00N 52°29' E 004°29'713.8
2017-Aug-13 06:30N 52°33' E 004°21'714.0
2017-Aug-13 06:01N 52°38' E 004°13'16317.2
2017-Aug-12 20:31N 54°17' E 000°35'218.7
2017-Aug-12 20:25N 54°18' E 000°33'818.8
2017-Aug-12 20:01N 54°22' E 000°22'918.9
2017-Aug-12 19:31N 54°27' E 000°08'919.0
2017-Aug-12 19:01N 54°32' W 000°06'918.8
2017-Aug-12 18:31N 54°38' W 000°20'1718.7
2017-Aug-12 17:36N 54°47' W 000°45'218.6
2017-Aug-12 17:30N 54°48' W 000°47'918.4
2017-Aug-12 17:00N 54°52' W 001°01'918.2
2017-Aug-12 16:31N 54°57' W 001°14'814.9
2017-Aug-12 16:00N 55°00' W 001°26'1 2.4
2017-Aug-12 15:30N 54°59' W 001°27'0 0.0
2017-Aug-12 15:00N 54°59' W 001°27'0 0.0
2017-Aug-12 14:30N 54°59' W 001°27'0 0.0
2017-Aug-12 14:00N 54°59' W 001°27'0 0.0
2017-Aug-12 13:30N 54°59' W 001°27'0 0.0
2017-Aug-12 13:00N 54°59' W 001°27'0 0.0
2017-Aug-12 12:30N 54°59' W 001°27'0 0.0
2017-Aug-12 12:00N 54°59' W 001°27'0 0.0
2017-Aug-12 11:30N 54°59' W 001°27'0 0.0
2017-Aug-12 11:00N 54°59' W 001°27'0 0.0
2017-Aug-12 10:30N 54°59' W 001°27'0 0.0
2017-Aug-12 10:00N 54°59' W 001°27'0 0.0
2017-Aug-12 09:30N 54°59' W 001°27'0 0.0
2017-Aug-12 09:00N 54°59' W 001°27'0 0.0
2017-Aug-12 08:30N 54°59' W 001°27'0 0.8
2017-Aug-12 08:00N 54°60' W 001°27'510.3
2017-Aug-12 07:30N 54°59' W 001°18'816.7
2017-Aug-12 07:00N 54°55' W 001°06'816.5
2017-Aug-12 06:30N 54°50' W 000°53'816.2
2017-Aug-12 06:00N 54°46' W 000°42'1616.2
2017-Aug-12 05:00N 54°37' W 000°17'816.5
2017-Aug-12 04:30N 54°33' W 000°06'816.7
2017-Aug-12 04:00N 54°28' E 000°06'917.3
2017-Aug-12 03:30N 54°24' E 000°19'917.5
2017-Aug-12 03:00N 54°19' E 000°31'917.8
2017-Aug-12 02:30N 54°14' E 000°44'15916.1
2017-Aug-11 16:38N 52°37' E 004°15'215.2
2017-Aug-11 16:29N 52°35' E 004°18'714.9
2017-Aug-11 16:00N 52°31' E 004°27'611.5
2017-Aug-11 15:31N 52°28' E 004°35'0 0.7
2017-Aug-11 15:01N 52°28' E 004°35'0 0.0
2017-Aug-11 13:58N 52°28' E 004°35'0 0.0
2017-Aug-11 13:28N 52°28' E 004°35'0 0.0
2017-Aug-11 12:58N 52°28' E 004°35'0 0.0
2017-Aug-11 12:28N 52°28' E 004°35'0 0.0
2017-Aug-11 11:58N 52°28' E 004°35'0 0.0
2017-Aug-11 11:28N 52°28' E 004°35'0 0.0
2017-Aug-11 10:58N 52°28' E 004°35'0 0.0
2017-Aug-11 10:28N 52°28' E 004°35'0 0.0
2017-Aug-11 09:58N 52°28' E 004°35'0 0.0
2017-Aug-11 09:28N 52°28' E 004°35'0 0.0
2017-Aug-11 08:58N 52°28' E 004°35'0 0.0
2017-Aug-11 08:28N 52°28' E 004°35'0 0.0
2017-Aug-11 07:55N 52°28' E 004°35'0 0.4
2017-Aug-11 07:30N 52°28' E 004°35'5 9.2
2017-Aug-11 07:00N 52°29' E 004°28'714.4
2017-Aug-11 06:30N 52°34' E 004°19'816.4
2017-Aug-11 06:00N 52°40' E 004°09'916.4
2017-Aug-11 05:28N 52°46' E 003°59'13517.2
2017-Aug-10 21:36N 54°09' E 000°59'417.8
2017-Aug-10 21:23N 54°11' E 000°53'717.8
2017-Aug-10 21:01N 54°14' E 000°44'917.9
2017-Aug-10 20:31N 54°19' E 000°31'918.0
2017-Aug-10 20:01N 54°24' E 000°18'918.2
2017-Aug-10 19:31N 54°29' E 000°05'918.3
2017-Aug-10 19:00N 54°33' W 000°09'918.3
2017-Aug-10 18:30N 54°38' W 000°22'1318.2
2017-Aug-10 17:47N 54°45' W 000°42'518.0
2017-Aug-10 17:30N 54°48' W 000°49'917.8
2017-Aug-10 17:01N 54°53' W 001°02'918.2
2017-Aug-10 16:30N 54°58' W 001°15'713.5
2017-Aug-10 16:00N 55°00' W 001°26'1 2.2
2017-Aug-10 15:30N 54°59' W 001°27'0 0.0
2017-Aug-10 14:59N 54°59' W 001°27'0 0.0
2017-Aug-10 14:29N 54°59' W 001°27'0 0.0
2017-Aug-10 13:56N 54°59' W 001°27'0 0.0
2017-Aug-10 13:20N 54°59' W 001°27'0 0.0
2017-Aug-10 12:53N 54°59' W 001°27'0 0.0
2017-Aug-10 12:20N 54°59' W 001°27'0 0.0
2017-Aug-10 11:59N 54°59' W 001°27'0 0.0
2017-Aug-10 11:29N 54°59' W 001°27'0 0.0
2017-Aug-10 10:59N 54°59' W 001°27'0 0.0
2017-Aug-10 10:29N 54°59' W 001°27'0 0.0
2017-Aug-10 09:59N 54°59' W 001°27'0 0.0
2017-Aug-10 09:26N 54°59' W 001°27'0 0.0
2017-Aug-10 08:59N 54°59' W 001°27'0 0.0
2017-Aug-10 08:29N 54°59' W 001°27'0 0.7
2017-Aug-10 08:00N 54°60' W 001°27'4 8.9
2017-Aug-10 07:30N 54°60' W 001°19'816.2
2017-Aug-10 07:01N 54°56' W 001°07'917.4
2017-Aug-10 06:31N 54°51' W 000°54'918.2
2017-Aug-10 06:01N 54°46' W 000°41'1317.7
2017-Aug-10 05:17N 54°39' W 000°22'517.5
2017-Aug-10 05:00N 54°36' W 000°15'917.5
2017-Aug-10 04:31N 54°32' W 000°03'917.6
2017-Aug-10 04:01N 54°27' E 000°10'816.8
2017-Aug-10 03:31N 54°22' E 000°22'17115.9
2017-Aug-09 16:45N 52°39' E 004°11'414.6
2017-Aug-09 16:30N 52°36' E 004°16'714.7
2017-Aug-09 15:59N 52°32' E 004°25'613.1
2017-Aug-09 15:30N 52°28' E 004°34'1 1.5
2017-Aug-09 15:00N 52°28' E 004°35'0 0.0
2017-Aug-09 14:29N 52°28' E 004°35'0 0.0
2017-Aug-09 13:56N 52°28' E 004°35'0 0.0
2017-Aug-09 13:29N 52°28' E 004°35'0 0.0
2017-Aug-09 12:59N 52°28' E 004°35'0 0.0
2017-Aug-09 12:26N 52°28' E 004°35'0 0.0
2017-Aug-09 11:59N 52°28' E 004°35'0 0.0
2017-Aug-09 11:29N 52°28' E 004°35'0 0.0
2017-Aug-09 10:59N 52°28' E 004°35'0 0.0
2017-Aug-09 10:29N 52°28' E 004°35'0 0.0
2017-Aug-09 09:56N 52°28' E 004°35'0 0.0
2017-Aug-09 09:29N 52°28' E 004°35'0 0.0
2017-Aug-09 08:59N 52°28' E 004°35'0 0.0
2017-Aug-09 08:29N 52°28' E 004°35'0 0.0
2017-Aug-09 07:59N 52°28' E 004°35'0 0.1
2017-Aug-09 07:31N 52°28' E 004°35'4 8.5
2017-Aug-09 07:00N 52°29' E 004°28'714.4
2017-Aug-09 06:30N 52°34' E 004°20'714.5
2017-Aug-09 06:00N 52°39' E 004°11'16717.2
2017-Aug-08 20:19N 54°20' E 000°28'618.9
2017-Aug-08 20:00N 54°23' E 000°20'1019.2
2017-Aug-08 19:30N 54°28' E 000°05'1019.5
2017-Aug-08 19:00N 54°33' W 000°09'1019.9
2017-Aug-08 18:30N 54°39' W 000°23'1719.9
2017-Aug-08 17:40N 54°48' W 000°48'319.8
2017-Aug-08 17:30N 54°49' W 000°53'1019.4
2017-Aug-08 17:00N 54°54' W 001°07'1019.4
2017-Aug-08 16:30N 54°60' W 001°21'3 6.9
2017-Aug-08 16:00N 54°59' W 001°27'0 0.2
2017-Aug-08 15:30N 54°59' W 001°27'0 0.0
2017-Aug-08 14:49N 54°59' W 001°27'0 0.0
2017-Aug-08 14:19N 54°59' W 001°27'0 0.0
2017-Aug-08 13:52N 54°59' W 001°27'0 0.0
2017-Aug-08 13:22N 54°59' W 001°27'0 0.0
2017-Aug-08 12:52N 54°59' W 001°27'0 0.0
2017-Aug-08 12:25N 54°59' W 001°27'0 0.0
2017-Aug-08 11:58N 54°59' W 001°27'0 0.0
2017-Aug-08 11:25N 54°59' W 001°27'0 0.0
2017-Aug-08 10:58N 54°59' W 001°27'  

Dump ship's entire track history